createdAt,value
2022-10-12T00:01:48.935Z,18.00
2022-10-12T00:04:15.814Z,18.33
2022-10-12T00:06:42.604Z,18.63
2022-10-12T00:09:09.540Z,17.03
2022-10-12T00:11:36.402Z,18.43
2022-10-12T00:14:03.165Z,18.10
2022-10-12T00:16:32.538Z,16.97
2022-10-12T00:18:59.311Z,18.47
2022-10-12T00:21:29.209Z,17.50
2022-10-12T00:24:02.061Z,17.63
2022-10-12T00:26:29.468Z,17.70
2022-10-12T00:29:00.214Z,17.33
2022-10-12T00:31:29.431Z,17.53
2022-10-12T00:34:04.396Z,17.83
2022-10-12T00:36:34.101Z,17.50
2022-10-12T00:39:03.120Z,17.27
2022-10-12T00:41:34.198Z,17.40
2022-10-12T00:44:00.946Z,17.03
2022-10-12T00:46:32.786Z,17.53
2022-10-12T00:49:17.652Z,16.60
2022-10-12T00:51:45.526Z,17.37
2022-10-12T00:54:14.339Z,19.03
2022-10-12T00:56:44.243Z,18.30
2022-10-12T00:59:12.814Z,19.17
2022-10-12T01:01:39.580Z,18.80
2022-10-12T01:04:06.312Z,19.10
2022-10-12T01:06:33.265Z,18.93
2022-10-12T01:08:59.999Z,19.53
2022-10-12T01:11:26.757Z,17.60
2022-10-12T01:13:53.552Z,17.40
2022-10-12T01:16:37.480Z,16.67
2022-10-12T01:19:29.039Z,15.73
2022-10-12T01:22:06.505Z,16.73
2022-10-12T01:24:53.552Z,16.23
2022-10-12T01:27:58.756Z,16.23
2022-10-12T01:30:35.855Z,15.03
2022-10-12T01:33:28.678Z,15.50
2022-10-12T01:35:57.215Z,14.83
2022-10-12T01:38:56.258Z,16.53
2022-10-12T01:41:32.466Z,16.10
2022-10-12T01:43:59.194Z,15.63
2022-10-12T01:46:25.907Z,14.87
2022-10-12T01:48:57.410Z,15.73
2022-10-12T01:51:30.577Z,15.83
2022-10-12T01:54:19.946Z,16.23
2022-10-12T01:57:06.932Z,14.57
2022-10-12T01:59:43.159Z,16.13
2022-10-12T02:02:35.452Z,16.33
2022-10-12T02:05:32.515Z,16.07
2022-10-12T02:08:19.985Z,16.13
2022-10-12T02:11:13.038Z,15.90
2022-10-12T02:13:56.082Z,15.47
2022-10-12T02:16:35.461Z,14.70
2022-10-12T02:19:02.406Z,15.97
2022-10-12T02:21:35.086Z,15.33
2022-10-12T02:24:05.768Z,15.03
2022-10-12T02:26:33.618Z,15.43
2022-10-12T02:29:01.092Z,15.73
2022-10-12T02:31:39.205Z,16.00
2022-10-12T02:34:18.003Z,15.63
2022-10-12T02:37:29.619Z,16.17
2022-10-12T02:40:02.157Z,15.97
2022-10-12T02:42:46.625Z,15.73
2022-10-12T02:45:21.665Z,15.80
2022-10-12T02:47:51.025Z,16.10
2022-10-12T02:50:20.765Z,17.23
2022-10-12T02:52:48.042Z,15.90
2022-10-12T02:55:14.913Z,16.50
2022-10-12T02:57:41.683Z,15.13
2022-10-12T03:00:09.211Z,16.17
2022-10-12T03:02:38.396Z,16.40
2022-10-12T03:05:05.661Z,16.10
2022-10-12T03:07:32.522Z,15.83
2022-10-12T03:09:59.277Z,16.47
2022-10-12T03:12:26.022Z,14.80
2022-10-12T03:14:52.847Z,15.83
2022-10-12T03:17:21.740Z,15.43
2022-10-12T03:19:50.679Z,14.87
2022-10-12T03:22:17.836Z,15.77
2022-10-12T03:24:46.825Z,14.40
2022-10-12T03:27:15.853Z,14.73
2022-10-12T03:29:42.653Z,15.40
2022-10-12T03:32:11.626Z,14.83
2022-10-12T03:34:40.619Z,14.93
2022-10-12T03:37:07.356Z,14.87
2022-10-12T03:39:36.450Z,13.40
2022-10-12T03:42:03.273Z,14.87
2022-10-12T03:44:30.009Z,14.93
2022-10-12T03:46:59.073Z,14.13
2022-10-12T03:49:28.070Z,14.60
2022-10-12T03:51:55.999Z,14.30
2022-10-12T03:54:22.789Z,14.70
2022-10-12T03:56:49.541Z,14.63
2022-10-12T03:59:16.297Z,15.40
2022-10-12T04:01:45.460Z,14.07
2022-10-12T04:04:14.736Z,14.40
2022-10-12T04:06:41.605Z,14.40
2022-10-12T04:09:08.604Z,14.47
2022-10-12T04:11:35.350Z,15.43
2022-10-12T04:14:02.137Z,14.20
2022-10-12T04:16:31.107Z,13.87
2022-10-12T04:18:58.136Z,14.00
2022-10-12T04:21:27.079Z,13.90
2022-10-12T04:23:58.647Z,14.90
2022-10-12T04:26:25.432Z,14.30
2022-10-12T04:28:52.279Z,13.77
2022-10-12T04:31:19.038Z,14.23
2022-10-12T04:33:45.776Z,13.93
2022-10-12T04:36:12.524Z,14.30
2022-10-12T04:38:39.343Z,15.27
2022-10-12T04:41:08.666Z,14.03
2022-10-12T04:43:35.411Z,14.30
2022-10-12T04:46:02.197Z,14.23
2022-10-12T04:48:29.341Z,14.47
2022-10-12T04:50:56.080Z,14.07
2022-10-12T04:53:23.010Z,14.83
2022-10-12T04:55:51.978Z,14.13
2022-10-12T04:58:20.911Z,14.60
2022-10-12T05:00:48.764Z,14.87
2022-10-12T05:03:18.048Z,14.77
2022-10-12T05:05:45.382Z,14.93
2022-10-12T05:08:13.092Z,15.10
2022-10-12T05:10:40.369Z,14.87
2022-10-12T05:13:07.344Z,14.47
2022-10-12T05:15:34.161Z,15.97
2022-10-12T05:18:03.571Z,16.30
2022-10-12T05:20:32.472Z,15.57
2022-10-12T05:23:01.954Z,16.63
2022-10-12T05:25:31.593Z,16.80
2022-10-12T05:27:58.389Z,17.53
2022-10-12T05:30:25.295Z,18.00
2022-10-12T05:32:54.478Z,18.07
2022-10-12T05:35:21.215Z,17.10
2022-10-12T05:37:47.996Z,18.93
2022-10-12T05:40:17.484Z,17.07
2022-10-12T05:42:45.616Z,17.77
2022-10-12T05:45:12.622Z,16.87
2022-10-12T05:47:40.489Z,16.60
2022-10-12T05:50:08.158Z,15.83
2022-10-12T05:52:34.964Z,16.57
2022-10-12T05:55:01.951Z,15.23
2022-10-12T05:57:36.756Z,15.77
2022-10-12T06:00:05.471Z,15.47
2022-10-12T06:02:32.205Z,15.83
2022-10-12T06:04:58.941Z,15.57
2022-10-12T06:07:25.747Z,15.10
2022-10-12T06:09:52.477Z,16.20
2022-10-12T06:12:21.650Z,15.83
2022-10-12T06:14:50.887Z,15.50
2022-10-12T06:17:17.596Z,15.77
2022-10-12T06:19:44.331Z,15.33
2022-10-12T06:22:11.059Z,15.47
2022-10-12T06:24:38.490Z,15.97
2022-10-12T06:27:05.365Z,16.47
2022-10-12T06:29:35.901Z,16.33
2022-10-12T06:32:02.631Z,16.23
2022-10-12T06:34:31.842Z,16.70
2022-10-12T06:37:01.805Z,15.50
2022-10-12T06:39:31.263Z,17.23
2022-10-12T06:41:57.999Z,18.20
2022-10-12T06:44:24.780Z,17.27
2022-10-12T06:46:51.608Z,17.70
2022-10-12T06:49:18.402Z,17.70
2022-10-12T06:51:45.182Z,17.83
2022-10-12T06:54:11.945Z,17.50
2022-10-12T06:56:39.667Z,17.87
2022-10-12T06:59:06.500Z,18.57
2022-10-12T07:01:37.873Z,16.83
2022-10-12T07:04:07.983Z,17.23
2022-10-12T07:06:34.762Z,17.43
2022-10-12T07:09:02.084Z,17.10
2022-10-12T07:11:28.845Z,17.63
2022-10-12T07:13:58.058Z,18.67
2022-10-12T07:16:26.936Z,17.60
2022-10-12T07:18:56.149Z,17.53
2022-10-12T07:21:22.923Z,17.37
2022-10-12T07:23:49.726Z,16.47
2022-10-12T07:26:16.549Z,16.83
2022-10-12T07:28:45.643Z,15.83
2022-10-12T07:31:14.591Z,16.57
2022-10-12T07:33:41.413Z,17.17
2022-10-12T07:36:20.777Z,15.90
2022-10-12T07:38:49.106Z,15.70
2022-10-12T07:41:18.579Z,16.77
2022-10-12T07:43:47.561Z,16.17
2022-10-12T07:46:14.313Z,15.70
2022-10-12T07:48:45.918Z,16.83
2022-10-12T07:51:15.855Z,16.97
2022-10-12T07:53:42.642Z,16.20
2022-10-12T07:56:15.036Z,15.43
2022-10-12T07:58:55.589Z,15.17
2022-10-12T08:01:23.728Z,15.00
2022-10-12T08:03:50.732Z,15.23
2022-10-12T08:06:21.534Z,16.33
2022-10-12T08:08:48.483Z,16.30
2022-10-12T08:11:15.513Z,15.63
2022-10-12T08:13:42.410Z,16.83
2022-10-12T08:16:11.288Z,15.00
2022-10-12T08:18:38.102Z,13.97
2022-10-12T08:21:10.170Z,14.77
2022-10-12T08:23:37.383Z,15.97
2022-10-12T08:26:04.679Z,15.20
2022-10-12T08:28:33.584Z,14.50
2022-10-12T08:31:02.497Z,13.97
2022-10-12T08:33:31.867Z,15.13
2022-10-12T08:36:03.154Z,14.23
2022-10-12T08:38:32.314Z,13.50
2022-10-12T08:41:26.336Z,12.10
2022-10-12T08:44:14.989Z,11.90
2022-10-12T08:46:41.796Z,11.30
2022-10-12T08:49:21.556Z,8.97
2022-10-12T08:51:59.241Z,8.60
2022-10-12T08:54:29.438Z,8.07
2022-10-12T08:56:56.677Z,8.03
2022-10-12T08:59:23.549Z,7.80
2022-10-12T09:02:02.033Z,7.43
2022-10-12T09:04:47.661Z,8.03
2022-10-12T09:07:26.254Z,6.60
2022-10-12T09:10:17.486Z,6.67
2022-10-12T09:13:20.314Z,5.20
2022-10-12T09:15:53.793Z,4.90
2022-10-12T09:18:42.228Z,4.10
2022-10-12T09:21:16.902Z,4.97
2022-10-12T09:23:46.246Z,4.90
2022-10-12T09:26:21.062Z,4.57
2022-10-12T09:28:55.347Z,5.17
2022-10-12T09:31:49.445Z,4.47
2022-10-12T09:34:19.251Z,4.93
2022-10-12T09:36:46.327Z,4.57
2022-10-12T09:39:24.529Z,4.10
2022-10-12T09:41:55.659Z,5.00
2022-10-12T09:44:43.458Z,4.47
2022-10-12T09:47:26.960Z,4.23
2022-10-12T09:49:58.402Z,3.80
2022-10-12T09:52:30.834Z,4.13
2022-10-12T09:55:04.878Z,3.43
2022-10-12T09:57:39.694Z,3.23
2022-10-12T10:00:27.082Z,4.40
2022-10-12T10:02:54.153Z,4.57
2022-10-12T10:05:30.641Z,3.37
2022-10-12T10:08:22.812Z,3.97
2022-10-12T10:10:50.171Z,3.37
2022-10-12T10:13:19.004Z,3.50
2022-10-12T10:15:53.514Z,4.03
2022-10-12T10:18:39.446Z,3.70
2022-10-12T10:21:07.831Z,3.57
2022-10-12T10:23:43.612Z,3.37
2022-10-12T10:26:11.874Z,3.40
2022-10-12T10:28:42.270Z,4.10
2022-10-12T10:31:16.537Z,3.37
2022-10-12T10:33:43.583Z,3.20
2022-10-12T10:36:28.622Z,3.33
2022-10-12T10:38:56.289Z,3.50
2022-10-12T10:41:26.292Z,3.20
2022-10-12T10:43:53.063Z,3.30
2022-10-12T10:46:30.912Z,3.30
2022-10-12T10:49:06.529Z,2.97
2022-10-12T10:51:59.630Z,2.67
2022-10-12T10:54:27.415Z,2.87
2022-10-12T10:57:02.091Z,3.67
2022-10-12T10:59:47.354Z,3.37
2022-10-12T11:02:38.675Z,2.70
2022-10-12T11:05:29.795Z,3.00
2022-10-12T11:08:03.353Z,2.73
2022-10-12T11:10:38.516Z,3.30
2022-10-12T11:13:11.401Z,2.90
2022-10-12T11:15:49.981Z,3.13
2022-10-12T11:18:16.832Z,3.37
2022-10-12T11:20:54.380Z,3.10
2022-10-12T11:23:30.081Z,3.07
2022-10-12T11:26:21.698Z,3.20
2022-10-12T11:28:48.582Z,3.10
2022-10-12T11:31:30.463Z,3.13
2022-10-12T11:34:03.175Z,3.13
2022-10-12T11:36:30.592Z,3.67
2022-10-12T11:39:06.826Z,3.90
2022-10-12T11:42:09.583Z,3.63
2022-10-12T11:44:44.241Z,6.57
2022-10-12T11:47:14.148Z,6.63
2022-10-12T11:49:46.990Z,6.00
2022-10-12T11:52:13.812Z,4.30
2022-10-12T11:54:52.569Z,4.00
2022-10-12T11:57:27.925Z,3.50
2022-10-12T12:00:05.063Z,3.00
2022-10-12T12:03:02.433Z,3.70
2022-10-12T12:05:31.416Z,3.30
2022-10-12T12:07:58.242Z,3.10
2022-10-12T12:10:28.342Z,3.03
2022-10-12T12:13:11.160Z,3.10
2022-10-12T12:16:01.447Z,2.90
2022-10-12T12:18:33.850Z,2.20
2022-10-12T12:21:07.210Z,2.70
2022-10-12T12:23:41.213Z,2.30
2022-10-12T12:26:16.096Z,2.40
2022-10-12T12:28:43.531Z,2.60
2022-10-12T12:31:17.198Z,3.27
2022-10-12T12:33:47.846Z,2.97
2022-10-12T12:36:33.424Z,3.17
2022-10-12T12:39:00.163Z,2.63
2022-10-12T12:41:56.446Z,2.83
2022-10-12T12:44:37.901Z,2.33
2022-10-12T12:47:26.038Z,2.23
2022-10-12T12:50:08.881Z,2.77
2022-10-12T12:52:38.904Z,2.63
2022-10-12T12:55:40.899Z,2.43
2022-10-12T12:58:36.998Z,2.63
2022-10-12T13:01:31.147Z,2.60
2022-10-12T13:04:23.184Z,2.67
2022-10-12T13:07:17.857Z,2.37
2022-10-12T13:10:06.246Z,2.77
2022-10-12T13:13:14.650Z,2.20
2022-10-12T13:16:00.122Z,2.77
2022-10-12T13:18:46.284Z,2.20
2022-10-12T13:21:22.964Z,2.20
2022-10-12T13:23:53.725Z,2.40
2022-10-12T13:26:25.661Z,2.30
2022-10-12T13:28:55.079Z,2.50
2022-10-12T13:31:27.317Z,2.60
2022-10-12T13:34:01.998Z,2.53
2022-10-12T13:36:30.750Z,2.40
2022-10-12T13:39:06.726Z,2.20
2022-10-12T13:41:33.518Z,2.60
2022-10-12T13:44:01.327Z,2.10
2022-10-12T13:46:34.319Z,2.23
2022-10-12T13:49:02.001Z,2.30
2022-10-12T13:51:31.389Z,2.40
2022-10-12T13:53:58.219Z,2.37
2022-10-12T13:56:29.147Z,2.50
2022-10-12T13:58:58.241Z,2.47
2022-10-12T14:01:25.419Z,2.40
2022-10-12T14:03:52.187Z,2.67
2022-10-12T14:06:36.760Z,2.40
2022-10-12T14:09:11.953Z,2.50
2022-10-12T14:11:38.820Z,2.40
2022-10-12T14:14:05.587Z,2.20
2022-10-12T14:16:34.429Z,2.40
2022-10-12T14:19:39.902Z,2.40
2022-10-12T14:22:06.744Z,1.97
2022-10-12T14:24:34.935Z,2.73
2022-10-12T14:27:02.935Z,2.07
2022-10-12T14:29:40.605Z,2.33
2022-10-12T14:32:29.514Z,2.63
2022-10-12T14:35:16.664Z,2.40
2022-10-12T14:37:46.148Z,2.37
2022-10-12T14:40:33.568Z,1.70
2022-10-12T14:43:08.066Z,2.13
2022-10-12T14:45:35.300Z,2.47
2022-10-12T14:48:02.440Z,2.20
2022-10-12T14:50:30.658Z,2.37
2022-10-12T14:53:05.046Z,2.70
2022-10-12T14:55:32.997Z,2.50
2022-10-12T14:58:03.158Z,2.80
2022-10-12T15:00:33.706Z,2.30
2022-10-12T15:03:03.078Z,2.80
2022-10-12T15:05:31.915Z,2.43
2022-10-12T15:07:59.281Z,2.53
2022-10-12T15:10:26.308Z,2.90
2022-10-12T15:12:53.213Z,2.53
2022-10-12T15:15:29.293Z,3.00
2022-10-12T15:17:56.544Z,3.13
2022-10-12T15:20:23.362Z,2.90
2022-10-12T15:22:50.169Z,2.53
2022-10-12T15:25:35.262Z,3.33
2022-10-12T15:28:05.304Z,2.80
2022-10-12T15:30:32.619Z,2.63
2022-10-12T15:32:59.427Z,3.13
2022-10-12T15:35:27.655Z,3.13
2022-10-12T15:37:56.786Z,3.17
2022-10-12T15:40:27.525Z,2.90
2022-10-12T15:42:54.343Z,3.03
2022-10-12T15:45:30.969Z,4.30
2022-10-12T15:47:57.810Z,5.93
2022-10-12T15:50:26.648Z,4.90
2022-10-12T15:52:55.851Z,4.40
2022-10-12T15:55:27.251Z,3.37
2022-10-12T15:57:54.116Z,3.27
2022-10-12T16:00:23.040Z,4.40
2022-10-12T16:02:49.830Z,3.50
2022-10-12T16:05:18.591Z,3.30
2022-10-12T16:07:45.483Z,3.10
2022-10-12T16:10:15.294Z,3.57
2022-10-12T16:12:45.731Z,3.00
2022-10-12T16:15:13.354Z,3.60
2022-10-12T16:17:40.127Z,4.17
2022-10-12T16:20:08.223Z,3.30
2022-10-12T16:22:35.689Z,3.57
2022-10-12T16:25:03.606Z,2.90
2022-10-12T16:27:30.672Z,3.10
2022-10-12T16:29:57.494Z,3.17
2022-10-12T16:32:26.405Z,3.27
2022-10-12T16:34:53.146Z,3.30
2022-10-12T16:37:22.466Z,3.23
2022-10-12T16:39:51.826Z,3.10
2022-10-12T16:42:18.621Z,3.33
2022-10-12T16:44:45.866Z,4.17
2022-10-12T16:47:12.822Z,3.67
2022-10-12T16:49:39.630Z,3.77
2022-10-12T16:52:06.702Z,4.23
2022-10-12T16:54:33.650Z,4.13
2022-10-12T16:57:03.015Z,3.67
2022-10-12T16:59:29.789Z,4.07
2022-10-12T17:01:56.606Z,4.33
2022-10-12T17:04:23.335Z,4.13
2022-10-12T17:06:50.105Z,4.53
2022-10-12T17:09:16.919Z,4.13
2022-10-12T17:11:43.691Z,4.57
2022-10-12T17:14:13.179Z,4.27
2022-10-12T17:16:48.698Z,4.63
2022-10-12T17:19:27.378Z,4.83
2022-10-12T17:21:54.279Z,5.20
2022-10-12T17:24:21.501Z,5.20
2022-10-12T17:26:48.353Z,5.30
2022-10-12T17:29:18.441Z,5.67
2022-10-12T17:31:48.062Z,4.77
2022-10-12T17:34:20.899Z,5.40
2022-10-12T17:36:47.824Z,5.57
2022-10-12T17:39:17.135Z,4.90
2022-10-12T17:41:44.061Z,5.20
2022-10-12T17:44:13.492Z,5.87
2022-10-12T17:46:40.705Z,5.43
2022-10-12T17:49:08.421Z,5.40
2022-10-12T17:51:37.369Z,4.97
2022-10-12T17:54:06.762Z,5.03
2022-10-12T17:56:33.602Z,5.43
2022-10-12T17:59:02.094Z,5.27
2022-10-12T18:01:29.571Z,4.77
2022-10-12T18:03:58.817Z,5.03
2022-10-12T18:06:25.629Z,4.83
2022-10-12T18:08:56.426Z,5.20
2022-10-12T18:11:23.592Z,5.17
2022-10-12T18:13:52.057Z,5.43
2022-10-12T18:16:22.881Z,5.17
2022-10-12T18:18:54.630Z,4.83
2022-10-12T18:21:25.695Z,4.83
2022-10-12T18:23:54.775Z,4.57
2022-10-12T18:26:22.290Z,5.10
2022-10-12T18:28:52.211Z,5.90
2022-10-12T18:31:20.217Z,5.67
2022-10-12T18:33:47.301Z,5.63
2022-10-12T18:36:19.167Z,5.43
2022-10-12T18:38:46.008Z,5.30
2022-10-12T18:41:15.453Z,5.37
2022-10-12T18:43:42.227Z,5.40
2022-10-12T18:46:10.417Z,5.70
2022-10-12T18:48:37.597Z,6.30
2022-10-12T18:51:15.214Z,5.83
2022-10-12T18:53:44.577Z,6.07
2022-10-12T18:56:11.487Z,6.17
2022-10-12T18:58:38.321Z,5.90
2022-10-12T19:01:10.177Z,6.00
2022-10-12T19:03:37.023Z,6.20
2022-10-12T19:06:05.702Z,6.30
2022-10-12T19:08:36.527Z,6.33
2022-10-12T19:11:08.208Z,6.90
2022-10-12T19:13:36.123Z,6.10
2022-10-12T19:16:04.799Z,6.57
2022-10-12T19:18:31.613Z,5.57
2022-10-12T19:21:03.062Z,6.33
2022-10-12T19:23:30.045Z,6.63
2022-10-12T19:25:57.201Z,6.90
2022-10-12T19:28:28.588Z,6.60
2022-10-12T19:30:55.365Z,6.17
2022-10-12T19:33:27.886Z,6.33
2022-10-12T19:35:54.922Z,6.20
2022-10-12T19:38:24.175Z,7.00
2022-10-12T19:40:51.004Z,7.00
2022-10-12T19:43:20.059Z,6.57
2022-10-12T19:45:46.892Z,6.40
2022-10-12T19:48:13.663Z,6.27
2022-10-12T19:50:40.456Z,6.40
2022-10-12T19:53:07.371Z,6.40
2022-10-12T19:55:39.306Z,6.37
2022-10-12T19:58:10.889Z,6.40
2022-10-12T20:00:37.759Z,6.27
2022-10-12T20:03:07.005Z,6.63
2022-10-12T20:05:34.407Z,6.43
2022-10-12T20:08:01.225Z,7.30
2022-10-12T20:10:27.997Z,7.27
2022-10-12T20:12:54.767Z,7.03
2022-10-12T20:15:23.695Z,6.77
2022-10-12T20:17:52.737Z,7.30
2022-10-12T20:20:19.555Z,7.87
2022-10-12T20:22:46.385Z,7.40
2022-10-12T20:25:13.180Z,7.73
2022-10-12T20:27:42.221Z,7.43
2022-10-12T20:30:10.022Z,7.13
2022-10-12T20:32:36.913Z,7.27
2022-10-12T20:35:06.739Z,8.00
2022-10-12T20:37:33.697Z,7.80
2022-10-12T20:40:03.151Z,7.23
2022-10-12T20:42:29.972Z,7.27
2022-10-12T20:44:56.736Z,6.97
2022-10-12T20:47:23.511Z,7.03
2022-10-12T20:49:52.925Z,7.73
2022-10-12T20:52:24.271Z,6.87
2022-10-12T20:54:52.441Z,8.27
2022-10-12T20:57:21.400Z,8.70
2022-10-12T20:59:49.129Z,8.60
2022-10-12T21:02:16.740Z,7.70
2022-10-12T21:04:46.902Z,8.20
2022-10-12T21:07:16.393Z,8.77
2022-10-12T21:09:43.179Z,8.07
2022-10-12T21:12:09.995Z,8.30
2022-10-12T21:14:39.261Z,8.23
2022-10-12T21:17:08.564Z,8.43
2022-10-12T21:19:37.557Z,9.83
2022-10-12T21:22:04.420Z,8.37
2022-10-12T21:24:33.296Z,7.93
2022-10-12T21:27:00.099Z,8.60
2022-10-12T21:29:31.556Z,8.20
2022-10-12T21:31:58.354Z,8.13
2022-10-12T21:34:25.139Z,8.67
2022-10-12T21:36:56.709Z,8.57
2022-10-12T21:39:23.659Z,9.87
2022-10-12T21:41:50.466Z,8.60
2022-10-12T21:44:17.347Z,8.73
2022-10-12T21:46:44.171Z,8.40
2022-10-12T21:49:11.124Z,9.07
2022-10-12T21:51:38.017Z,8.33
2022-10-12T21:54:05.726Z,8.93
2022-10-12T21:56:36.002Z,8.23
2022-10-12T21:59:03.158Z,8.73
2022-10-12T22:01:35.256Z,8.50
2022-10-12T22:04:03.878Z,9.50
2022-10-12T22:06:30.791Z,8.57
2022-10-12T22:08:59.377Z,8.53
2022-10-12T22:11:27.308Z,8.50
2022-10-12T22:13:58.151Z,8.03
2022-10-12T22:16:24.975Z,8.50
2022-10-12T22:18:51.727Z,8.87
2022-10-12T22:21:21.567Z,8.50
2022-10-12T22:23:48.490Z,8.90
2022-10-12T22:26:18.683Z,8.77
2022-10-12T22:28:45.682Z,8.07
2022-10-12T22:31:13.260Z,8.83
2022-10-12T22:33:44.691Z,8.27
2022-10-12T22:36:11.839Z,8.23
2022-10-12T22:38:38.648Z,8.93
2022-10-12T22:41:10.662Z,9.37
2022-10-12T22:43:39.974Z,8.80
2022-10-12T22:46:06.938Z,8.53
2022-10-12T22:48:36.470Z,8.37
2022-10-12T22:51:04.025Z,8.87
2022-10-12T22:53:30.892Z,9.93
2022-10-12T22:56:01.392Z,10.77
2022-10-12T22:58:28.586Z,8.60
2022-10-12T23:01:03.206Z,10.27
2022-10-12T23:03:31.514Z,9.93
2022-10-12T23:05:58.313Z,9.30
2022-10-12T23:08:27.771Z,9.93
2022-10-12T23:10:57.711Z,10.37
2022-10-12T23:13:29.168Z,9.47
2022-10-12T23:15:55.952Z,9.40
2022-10-12T23:18:24.996Z,9.47
2022-10-12T23:20:51.749Z,9.83
2022-10-12T23:23:21.032Z,9.20
2022-10-12T23:25:50.048Z,10.03
2022-10-12T23:28:16.840Z,9.23
2022-10-12T23:30:43.704Z,9.33
2022-10-12T23:33:10.474Z,10.03
2022-10-12T23:35:37.228Z,10.80
2022-10-12T23:38:04.001Z,10.50
2022-10-12T23:40:33.012Z,10.27
2022-10-12T23:43:02.007Z,11.00
2022-10-12T23:45:28.840Z,10.60
2022-10-12T23:47:55.616Z,10.00
2022-10-12T23:50:22.424Z,10.80
2022-10-12T23:52:51.354Z,10.20
2022-10-12T23:55:18.084Z,10.87
2022-10-12T23:57:47.400Z,10.30
